Concrete, WA (98237)

7:41 AM PDT on September 20, 2014 (GMT -0700)
Lyman, WA | Change Station
CLOSE
Current Station
Personal Weather Station
Location: Sedro Woolley, WA
Elevation: 476 ft
Nearby Weather Stations

Elev 476 ft 48.54 °N, 122.08 °W | Updated 6 minutes ago

Mostly Cloudy
Mostly Cloudy
53.3 °F
Feels Like 53.3 °F
N
0.0
Wind Variable Wind from WSW
Gusts 1.0 mph

Today
High -- | Low -- °F
--% Chance of Precip.
Yesterday
High -- | Low -- °F
Precip. -- in
6:50 AM 7:08 PM
Waning Crescent, 12% visible
Pressure 30.14 in
Visibility 0.5 miles
Clouds Overcast 100 ft
Dew Point 53 °F
Humidity 98%
Rainfall 0.00 in
Snow Depth 0 in , 0 in , 0 in
UV 0 out of 12
Pollen 1.30 out of 12
PM2.5 Good
Flu Activity Not available.
METAR KBVS 201435Z AUTO 31007KT 1/2SM OVC001 13/13 A3014 RMK A01 P000

More Conditions Fewer Conditions

Pressure 30.14 in
Visibility 0.5 miles
Clouds Overcast 100 ft
Dew Point 53 °F
Humidity 98%
Rainfall 0.00 in
Snow Depth 0 in , 0 in , 0 in
UV 0 out of 12
Pollen 1.30 out of 12
PM2.5 Good
Flu Activity Not available.
METAR KBVS 201435Z AUTO 31007KT 1/2SM OVC001 13/13 A3014 RMK A01 P000

More Conditions Fewer Conditions

10-Day Weather Forecast

Almanac

Astronomy

Sep. 20, 2014 Rise Set
Actual Time 6:50 AM PDT 7:08 PM PDT
Civil Twilight 6:19 AM PDT 7:40 PM PDT
Nautical Twilight 5:42 AM PDT 8:17 PM PDT
Astronomical Twilight 5:04 AM PDT 8:55 PM PDT
Moon 3:22 AM PDT 5:25 PM PDT
Length of Visible Light 13h 20m
Length of Day
12h 17m
Tomorrow will be 3m 32s shorter.
Waning Crescent, 12% of the Moon is Illuminated
Today
Waning Crescent
Sep 24
New
Oct 1
First Quarter
Oct 8
Full
Oct 15
Last Quarter

Today's Extremes

State Highs State Lows

Community

WunderPhotos

Upload Photos

1,754,872 photos uploaded!

WunderBlogs® & News

Nearby

Air Quality

  Air Quality AQ Index Pollutant
Yesterday Good
PM2.5
Current Good
PM2.5
Saturday Good
PM2.5
Saturday Good
OZONE
Sunday Good
PM2.5
Sunday Good
OZONE
Monday Good
OZONE
Monday Good
PM2.5
Tuesday Good
OZONE
Tuesday Good
PM2.5

Snow Depth

Station Depth Elevation
Lost Horse 0 in 5000 ft
Bumping Ridge 0 in 4600 ft
Blewett Pass 0 in 4270 ft
Dungeness 0 in 4100 ft
White Pass E.S. 0 in 4500 ft

Earthquake Activity

City Distance Mag. Time & Date
Seabeck, Washington 88 miles 4.0 3:06 AM PDT
2014-09-17
Minimum magnitude displayed is 2.5.

Coastal Water Temperatures

Place Temperature
No Stations Reporting

Nearby Weather Stations